sensor_id;sensor_type;location;lat;lon;timestamp;pressure;altitude;pressure_sealevel;temperature;humidity
78149;BME280;67396;42.664;23.382;2023-07-20T00:00:16;94617.63;;;25.85;41.67
78149;BME280;67396;42.664;23.382;2023-07-20T00:02:42;94625.97;;;25.79;41.42
78149;BME280;67396;42.664;23.382;2023-07-20T00:05:08;94634.69;;;25.81;41.80
78149;BME280;67396;42.664;23.382;2023-07-20T00:07:33;94639.88;;;25.89;41.85
78149;BME280;67396;42.664;23.382;2023-07-20T00:09:59;94618.78;;;25.99;40.89
78149;BME280;67396;42.664;23.382;2023-07-20T00:12:24;94622.38;;;25.99;40.49
78149;BME280;67396;42.664;23.382;2023-07-20T00:14:50;94631.25;;;25.72;41.76
78149;BME280;67396;42.664;23.382;2023-07-20T00:17:19;94652.56;;;24.94;45.05
78149;BME280;67396;42.664;23.382;2023-07-20T00:19:44;94644.50;;;24.04;47.83
78149;BME280;67396;42.664;23.382;2023-07-20T00:22:09;94621.28;;;23.89;48.23
78149;BME280;67396;42.664;23.382;2023-07-20T00:24:35;94631.03;;;23.55;49.75
78149;BME280;67396;42.664;23.382;2023-07-20T00:27:00;94635.31;;;23.32;50.23
78149;BME280;67396;42.664;23.382;2023-07-20T00:29:26;94632.31;;;23.45;49.59
78149;BME280;67396;42.664;23.382;2023-07-20T00:31:51;94615.53;;;23.12;50.79
78149;BME280;67396;42.664;23.382;2023-07-20T00:34:17;94619.28;;;23.09;50.26
78149;BME280;67396;42.664;23.382;2023-07-20T00:36:42;94611.66;;;23.09;50.75
78149;BME280;67396;42.664;23.382;2023-07-20T00:39:07;94612.75;;;23.12;51.10
78149;BME280;67396;42.664;23.382;2023-07-20T00:41:33;94626.97;;;23.23;49.96
78149;BME280;67396;42.664;23.382;2023-07-20T00:43:58;94637.34;;;23.32;50.45
78149;BME280;67396;42.664;23.382;2023-07-20T00:46:24;94625.16;;;23.44;50.40
78149;BME280;67396;42.664;23.382;2023-07-20T00:48:50;94619.69;;;23.73;49.69
78149;BME280;67396;42.664;23.382;2023-07-20T00:51:16;94615.00;;;23.94;49.13
78149;BME280;67396;42.664;23.382;2023-07-20T00:53:42;94611.47;;;24.08;48.41
78149;BME280;67396;42.664;23.382;2023-07-20T00:56:07;94609.53;;;24.14;47.74
78149;BME280;67396;42.664;23.382;2023-07-20T00:58:34;94594.81;;;24.05;49.17
78149;BME280;67396;42.664;23.382;2023-07-20T01:01:00;94596.34;;;24.06;48.61
78149;BME280;67396;42.664;23.382;2023-07-20T01:03:25;94605.19;;;24.28;48.51
78149;BME280;67396;42.664;23.382;2023-07-20T01:06:23;94602.41;;;24.43;49.03
78149;BME280;67396;42.664;23.382;2023-07-20T01:09:13;94603.94;;;24.29;48.57
78149;BME280;67396;42.664;23.382;2023-07-20T01:11:48;94619.25;;;24.43;48.40
78149;BME280;67396;42.664;23.382;2023-07-20T01:14:15;94619.25;;;24.43;47.93
78149;BME280;67396;42.664;23.382;2023-07-20T01:16:42;94624.41;;;24.20;48.47
78149;BME280;67396;42.664;23.382;2023-07-20T01:19:07;94621.13;;;24.07;50.39
78149;BME280;67396;42.664;23.382;2023-07-20T01:21:53;94624.44;;;23.34;53.47
78149;BME280;67396;42.664;23.382;2023-07-20T01:24:38;94620.22;;;23.06;55.04
78149;BME280;67396;42.664;23.382;2023-07-20T01:32:14;94609.13;;;23.44;54.92
78149;BME280;67396;42.664;23.382;2023-07-20T01:34:43;94614.31;;;23.60;54.60
78149;BME280;67396;42.664;23.382;2023-07-20T01:37:10;94617.38;;;23.72;54.05
78149;BME280;67396;42.664;23.382;2023-07-20T01:39:37;94625.41;;;23.79;54.10
78149;BME280;67396;42.664;23.382;2023-07-20T01:42:04;94625.31;;;23.88;53.66
78149;BME280;67396;42.664;23.382;2023-07-20T01:44:29;94623.19;;;23.83;53.90
78149;BME280;67396;42.664;23.382;2023-07-20T01:46:55;94619.41;;;23.86;53.90
78149;BME280;67396;42.664;23.382;2023-07-20T01:49:20;94605.22;;;23.89;53.97
78149;BME280;67396;42.664;23.382;2023-07-20T01:51:46;94612.97;;;23.94;53.68
78149;BME280;67396;42.664;23.382;2023-07-20T01:54:11;94607.88;;;23.69;54.27
78149;BME280;67396;42.664;23.382;2023-07-20T01:56:37;94604.94;;;23.16;55.81
78149;BME280;67396;42.664;23.382;2023-07-20T01:59:02;94614.28;;;22.80;57.30
78149;BME280;67396;42.664;23.382;2023-07-20T02:01:28;94610.84;;;23.18;55.48
78149;BME280;67396;42.664;23.382;2023-07-20T02:03:56;94605.44;;;23.38;54.93
78149;BME280;67396;42.664;23.382;2023-07-20T02:06:21;94601.63;;;23.50;54.85
78149;BME280;67396;42.664;23.382;2023-07-20T02:08:47;94597.56;;;23.51;54.75
78149;BME280;67396;42.664;23.382;2023-07-20T02:11:12;94598.81;;;23.50;54.62
78149;BME280;67396;42.664;23.382;2023-07-20T02:13:37;94596.53;;;23.40;55.09
78149;BME280;67396;42.664;23.382;2023-07-20T02:16:03;94595.28;;;23.17;55.72
78149;BME280;67396;42.664;23.382;2023-07-20T02:18:29;94602.97;;;23.31;55.66
78149;BME280;67396;42.664;23.382;2023-07-20T02:20:54;94600.63;;;23.06;56.09
78149;BME280;67396;42.664;23.382;2023-07-20T02:23:20;94600.16;;;23.31;55.27
78149;BME280;67396;42.664;23.382;2023-07-20T02:25:45;94598.63;;;23.30;54.91
78149;BME280;67396;42.664;23.382;2023-07-20T02:28:13;94610.72;;;23.12;55.80
78149;BME280;67396;42.664;23.382;2023-07-20T02:30:39;94595.63;;;23.10;55.64
78149;BME280;67396;42.664;23.382;2023-07-20T02:33:05;94607.41;;;23.14;55.52
78149;BME280;67396;42.664;23.382;2023-07-20T02:35:32;94597.13;;;23.20;55.50
78149;BME280;67396;42.664;23.382;2023-07-20T02:37:57;94600.56;;;23.15;55.76
78149;BME280;67396;42.664;23.382;2023-07-20T02:40:23;94598.03;;;23.26;55.31
78149;BME280;67396;42.664;23.382;2023-07-20T02:42:48;94589.19;;;23.42;55.03
78149;BME280;67396;42.664;23.382;2023-07-20T02:45:14;94578.31;;;23.44;54.71
78149;BME280;67396;42.664;23.382;2023-07-20T02:47:39;94570.09;;;23.65;53.16
78149;BME280;67396;42.664;23.382;2023-07-20T02:50:07;94570.97;;;23.71;53.31
78149;BME280;67396;42.664;23.382;2023-07-20T02:52:33;94572.44;;;23.81;53.19
78149;BME280;67396;42.664;23.382;2023-07-20T02:54:58;94566.16;;;23.86;53.14
78149;BME280;67396;42.664;23.382;2023-07-20T02:57:24;94565.75;;;23.78;53.20
78149;BME280;67396;42.664;23.382;2023-07-20T02:59:49;94577.19;;;23.75;53.20
78149;BME280;67396;42.664;23.382;2023-07-20T03:02:15;94576.28;;;23.69;53.41
78149;BME280;67396;42.664;23.382;2023-07-20T03:04:40;94576.63;;;23.61;53.97
78149;BME280;67396;42.664;23.382;2023-07-20T03:07:06;94574.22;;;23.54;54.33
78149;BME280;67396;42.664;23.382;2023-07-20T03:09:32;94577.13;;;23.60;53.94
78149;BME280;67396;42.664;23.382;2023-07-20T03:11:57;94578.59;;;23.46;54.53
78149;BME280;67396;42.664;23.382;2023-07-20T03:14:23;94581.16;;;23.11;56.06
78149;BME280;67396;42.664;23.382;2023-07-20T03:16:49;94580.03;;;23.18;55.85
78149;BME280;67396;42.664;23.382;2023-07-20T03:19:15;94587.03;;;22.89;56.73
78149;BME280;67396;42.664;23.382;2023-07-20T03:21:40;94594.22;;;22.81;57.19
78149;BME280;67396;42.664;23.382;2023-07-20T03:24:10;94602.53;;;23.00;56.30
78149;BME280;67396;42.664;23.382;2023-07-20T03:26:36;94592.38;;;23.11;56.03
78149;BME280;67396;42.664;23.382;2023-07-20T03:29:02;94594.59;;;22.98;56.88
78149;BME280;67396;42.664;23.382;2023-07-20T03:31:27;94601.06;;;22.80;57.34
78149;BME280;67396;42.664;23.382;2023-07-20T03:33:53;94602.38;;;22.52;58.45
78149;BME280;67396;42.664;23.382;2023-07-20T03:36:18;94607.25;;;22.33;58.65
78149;BME280;67396;42.664;23.382;2023-07-20T03:38:44;94600.13;;;22.32;58.78
78149;BME280;67396;42.664;23.382;2023-07-20T03:41:10;94602.84;;;22.60;57.67
78149;BME280;67396;42.664;23.382;2023-07-20T03:43:36;94609.69;;;22.49;57.63
78149;BME280;67396;42.664;23.382;2023-07-20T03:46:02;94604.25;;;22.46;57.16
78149;BME280;67396;42.664;23.382;2023-07-20T03:48:32;94607.84;;;22.37;57.40
78149;BME280;67396;42.664;23.382;2023-07-20T03:50:58;94608.91;;;22.49;57.06
78149;BME280;67396;42.664;23.382;2023-07-20T03:53:24;94614.22;;;22.47;57.23
78149;BME280;67396;42.664;23.382;2023-07-20T03:55:51;94608.47;;;22.50;57.15
78149;BME280;67396;42.664;23.382;2023-07-20T03:58:17;94605.75;;;22.65;56.81
78149;BME280;67396;42.664;23.382;2023-07-20T04:00:50;94606.66;;;22.80;56.05
78149;BME280;67396;42.664;23.382;2023-07-20T04:03:17;94616.19;;;22.56;56.74
78149;BME280;67396;42.664;23.382;2023-07-20T04:05:43;94612.28;;;22.62;57.03
78149;BME280;67396;42.664;23.382;2023-07-20T04:08:09;94619.09;;;22.70;57.11
78149;BME280;67396;42.664;23.382;2023-07-20T04:10:36;94607.03;;;22.55;57.38
78149;BME280;67396;42.664;23.382;2023-07-20T04:13:01;94596.75;;;22.61;57.25
78149;BME280;67396;42.664;23.382;2023-07-20T04:15:27;94605.16;;;23.03;55.60
78149;BME280;67396;42.664;23.382;2023-07-20T04:18:11;94609.47;;;23.37;54.69
78149;BME280;67396;42.664;23.382;2023-07-20T04:20:37;94595.00;;;23.39;54.71
78149;BME280;67396;42.664;23.382;2023-07-20T04:23:02;94594.53;;;23.64;53.99
78149;BME280;67396;42.664;23.382;2023-07-20T04:25:28;94593.25;;;23.89;52.60
78149;BME280;67396;42.664;23.382;2023-07-20T04:27:53;94599.50;;;24.22;51.28
78149;BME280;67396;42.664;23.382;2023-07-20T04:30:19;94595.94;;;24.51;50.11
78149;BME280;67396;42.664;23.382;2023-07-20T04:32:45;94595.25;;;24.56;50.02
78149;BME280;67396;42.664;23.382;2023-07-20T04:36:02;94594.00;;;24.57;49.91
78149;BME280;67396;42.664;23.382;2023-07-20T04:38:03;94597.97;;;24.51;50.08
78149;BME280;67396;42.664;23.382;2023-07-20T04:40:28;94590.97;;;24.46;50.79
78149;BME280;67396;42.664;23.382;2023-07-20T04:42:53;94576.81;;;23.96;52.05
78149;BME280;67396;42.664;23.382;2023-07-20T04:45:19;94573.88;;;23.76;53.12
78149;BME280;67396;42.664;23.382;2023-07-20T04:47:44;94579.34;;;24.09;51.70
78149;BME280;67396;42.664;23.382;2023-07-20T04:50:10;94588.28;;;24.37;51.16
78149;BME280;67396;42.664;23.382;2023-07-20T04:52:38;94584.97;;;24.68;51.23
78149;BME280;67396;42.664;23.382;2023-07-20T04:55:04;94584.69;;;24.22;52.65
78149;BME280;67396;42.664;23.382;2023-07-20T04:57:29;94582.81;;;23.89;53.61
78149;BME280;67396;42.664;23.382;2023-07-20T04:59:55;94590.56;;;24.09;54.41
78149;BME280;67396;42.664;23.382;2023-07-20T05:02:20;94572.41;;;24.49;55.48
78149;BME280;67396;42.664;23.382;2023-07-20T05:04:45;94568.72;;;24.57;51.19
78149;BME280;67396;42.664;23.382;2023-07-20T05:07:11;94576.84;;;24.70;49.92
78149;BME280;67396;42.664;23.382;2023-07-20T05:09:36;94576.72;;;24.94;48.60
78149;BME280;67396;42.664;23.382;2023-07-20T05:12:02;94584.28;;;25.02;48.54
78149;BME280;67396;42.664;23.382;2023-07-20T05:14:27;94573.22;;;25.34;48.34
78149;BME280;67396;42.664;23.382;2023-07-20T05:16:53;94583.94;;;25.70;47.14
78149;BME280;67396;42.664;23.382;2023-07-20T05:19:18;94584.22;;;25.72;47.74
78149;BME280;67396;42.664;23.382;2023-07-20T05:21:43;94586.06;;;25.75;47.50
78149;BME280;67396;42.664;23.382;2023-07-20T05:24:09;94581.91;;;26.17;45.22
78149;BME280;67396;42.664;23.382;2023-07-20T05:26:34;94578.38;;;26.22;45.08
78149;BME280;67396;42.664;23.382;2023-07-20T05:28:59;94582.22;;;25.99;46.53
78149;BME280;67396;42.664;23.382;2023-07-20T05:31:25;94584.75;;;25.97;47.11
78149;BME280;67396;42.664;23.382;2023-07-20T05:33:51;94589.53;;;25.91;47.61
78149;BME280;67396;42.664;23.382;2023-07-20T05:36:25;94584.31;;;26.04;47.02
78149;BME280;67396;42.664;23.382;2023-07-20T05:38:51;94594.88;;;25.89;47.69
78149;BME280;67396;42.664;23.382;2023-07-20T05:41:16;94580.69;;;25.77;47.77
78149;BME280;67396;42.664;23.382;2023-07-20T05:43:41;94592.56;;;25.46;47.85
78149;BME280;67396;42.664;23.382;2023-07-20T05:46:07;94600.06;;;25.55;48.12
78149;BME280;67396;42.664;23.382;2023-07-20T05:48:33;94601.63;;;25.56;48.68
78149;BME280;67396;42.664;23.382;2023-07-20T05:50:58;94616.94;;;25.55;47.58
78149;BME280;67396;42.664;23.382;2023-07-20T05:53:23;94600.50;;;25.68;47.60
78149;BME280;67396;42.664;23.382;2023-07-20T05:55:55;94606.88;;;25.48;48.68
78149;BME280;67396;42.664;23.382;2023-07-20T05:58:20;94605.66;;;25.00;49.33
78149;BME280;67396;42.664;23.382;2023-07-20T06:00:50;94608.59;;;24.76;50.23
78149;BME280;67396;42.664;23.382;2023-07-20T06:03:16;94604.25;;;25.25;48.88
78149;BME280;67396;42.664;23.382;2023-07-20T06:05:42;94597.16;;;25.64;47.96
78149;BME280;67396;42.664;23.382;2023-07-20T06:08:08;94585.09;;;26.04;47.19
78149;BME280;67396;42.664;23.382;2023-07-20T06:10:33;94589.41;;;26.00;47.33
78149;BME280;67396;42.664;23.382;2023-07-20T06:12:58;94591.25;;;25.82;47.05
78149;BME280;67396;42.664;23.382;2023-07-20T06:15:26;94591.16;;;25.97;46.51
78149;BME280;67396;42.664;23.382;2023-07-20T06:17:52;94584.16;;;26.33;45.85
78149;BME280;67396;42.664;23.382;2023-07-20T06:20:17;94592.25;;;26.51;45.14
78149;BME280;67396;42.664;23.382;2023-07-20T06:22:44;94581.22;;;27.53;42.22
78149;BME280;67396;42.664;23.382;2023-07-20T06:25:10;94586.03;;;28.94;39.37
78149;BME280;67396;42.664;23.382;2023-07-20T06:27:35;94570.59;;;30.55;35.89
78149;BME280;67396;42.664;23.382;2023-07-20T06:30:01;94564.91;;;31.74;33.19
78149;BME280;67396;42.664;23.382;2023-07-20T06:32:27;94567.03;;;32.68;31.89
78149;BME280;67396;42.664;23.382;2023-07-20T06:34:52;94568.28;;;33.36;30.77
78149;BME280;67396;42.664;23.382;2023-07-20T06:37:17;94568.41;;;33.70;30.48
78149;BME280;67396;42.664;23.382;2023-07-20T06:39:44;94570.09;;;33.92;29.85
78149;BME280;67396;42.664;23.382;2023-07-20T06:42:09;94559.09;;;34.35;29.45
78149;BME280;67396;42.664;23.382;2023-07-20T06:44:35;94561.53;;;34.65;28.94
78149;BME280;67396;42.664;23.382;2023-07-20T06:47:00;94565.44;;;34.76;28.46
78149;BME280;67396;42.664;23.382;2023-07-20T06:49:27;94561.16;;;34.82;29.44
78149;BME280;67396;42.664;23.382;2023-07-20T06:51:52;94565.78;;;35.06;29.16
78149;BME280;67396;42.664;23.382;2023-07-20T06:54:18;94566.53;;;35.27;28.96
78149;BME280;67396;42.664;23.382;2023-07-20T06:56:43;94564.59;;;35.43;28.21
78149;BME280;67396;42.664;23.382;2023-07-20T06:59:08;94566.31;;;35.46;27.81
78149;BME280;67396;42.664;23.382;2023-07-20T07:01:34;94580.25;;;34.14;29.75
78149;BME280;67396;42.664;23.382;2023-07-20T07:03:59;94593.84;;;31.43;34.72
78149;BME280;67396;42.664;23.382;2023-07-20T07:06:25;94597.00;;;30.74;36.30
78149;BME280;67396;42.664;23.382;2023-07-20T07:08:52;94597.94;;;29.83;38.47
78149;BME280;67396;42.664;23.382;2023-07-20T07:11:37;94603.97;;;29.52;39.36
78149;BME280;67396;42.664;23.382;2023-07-20T07:14:02;94606.81;;;29.24;39.80
78149;BME280;67396;42.664;23.382;2023-07-20T07:16:28;94604.25;;;29.04;39.70
78149;BME280;67396;42.664;23.382;2023-07-20T07:18:53;94616.09;;;29.02;40.20
78149;BME280;67396;42.664;23.382;2023-07-20T07:21:19;94631.22;;;28.83;40.05
78149;BME280;67396;42.664;23.382;2023-07-20T07:23:45;94639.59;;;28.38;41.06
78149;BME280;67396;42.664;23.382;2023-07-20T07:26:11;94644.03;;;27.96;41.69
78149;BME280;67396;42.664;23.382;2023-07-20T07:28:36;94642.00;;;27.54;43.53
78149;BME280;67396;42.664;23.382;2023-07-20T07:31:05;94641.94;;;27.49;44.57
78149;BME280;67396;42.664;23.382;2023-07-20T07:33:31;94648.06;;;27.79;42.90
78149;BME280;67396;42.664;23.382;2023-07-20T07:35:57;94645.03;;;27.93;42.57
78149;BME280;67396;42.664;23.382;2023-07-20T07:38:23;94636.72;;;28.27;41.55
78149;BME280;67396;42.664;23.382;2023-07-20T07:40:48;94624.69;;;28.43;41.11
78149;BME280;67396;42.664;23.382;2023-07-20T07:43:13;94626.28;;;28.61;40.58
78149;BME280;67396;42.664;23.382;2023-07-20T07:45:40;94617.06;;;28.71;40.50
78149;BME280;67396;42.664;23.382;2023-07-20T07:48:06;94634.31;;;29.07;40.04
78149;BME280;67396;42.664;23.382;2023-07-20T07:50:32;94635.88;;;29.19;39.20
78149;BME280;67396;42.664;23.382;2023-07-20T07:52:57;94617.06;;;29.61;38.77
78149;BME280;67396;42.664;23.382;2023-07-20T07:55:24;94585.06;;;29.99;37.96
78149;BME280;67396;42.664;23.382;2023-07-20T07:57:52;94581.78;;;30.30;37.16
78149;BME280;67396;42.664;23.382;2023-07-20T08:00:17;94577.00;;;30.14;37.05
78149;BME280;67396;42.664;23.382;2023-07-20T08:02:44;94603.69;;;29.50;39.23
78149;BME280;67396;42.664;23.382;2023-07-20T08:05:10;94587.72;;;29.69;38.16
78149;BME280;67396;42.664;23.382;2023-07-20T08:07:38;94589.59;;;29.28;38.66
78149;BME280;67396;42.664;23.382;2023-07-20T08:10:05;94601.88;;;29.58;39.13
78149;BME280;67396;42.664;23.382;2023-07-20T08:12:30;94615.69;;;29.84;37.82
78149;BME280;67396;42.664;23.382;2023-07-20T08:14:56;94626.59;;;29.13;39.22
78149;BME280;67396;42.664;23.382;2023-07-20T08:17:21;94633.97;;;28.55;41.04
78149;BME280;67396;42.664;23.382;2023-07-20T08:19:47;94634.56;;;28.87;41.91
78149;BME280;67396;42.664;23.382;2023-07-20T08:22:15;94622.66;;;28.43;40.94
78149;BME280;67396;42.664;23.382;2023-07-20T08:24:41;94631.13;;;27.79;42.93
78149;BME280;67396;42.664;23.382;2023-07-20T08:27:07;94643.06;;;28.05;43.60
78149;BME280;67396;42.664;23.382;2023-07-20T08:29:34;94631.91;;;28.44;43.06
78149;BME280;67396;42.664;23.382;2023-07-20T08:31:59;94621.88;;;28.43;43.82
78149;BME280;67396;42.664;23.382;2023-07-20T08:34:25;94614.22;;;28.71;44.52
78149;BME280;67396;42.664;23.382;2023-07-20T08:36:50;94632.97;;;28.58;43.85
78149;BME280;67396;42.664;23.382;2023-07-20T08:39:16;94635.00;;;28.52;42.89
78149;BME280;67396;42.664;23.382;2023-07-20T08:41:43;94630.69;;;28.67;41.33
78149;BME280;67396;42.664;23.382;2023-07-20T08:44:09;94637.88;;;29.58;38.74
78149;BME280;67396;42.664;23.382;2023-07-20T08:46:38;94629.19;;;29.44;38.16
78149;BME280;67396;42.664;23.382;2023-07-20T08:49:04;94624.84;;;31.05;34.53
78149;BME280;67396;42.664;23.382;2023-07-20T08:51:30;94620.06;;;32.84;31.25
78149;BME280;67396;42.664;23.382;2023-07-20T08:53:56;94625.72;;;34.06;28.92
78149;BME280;67396;42.664;23.382;2023-07-20T08:56:23;94606.31;;;35.25;26.49
78149;BME280;67396;42.664;23.382;2023-07-20T08:58:51;94606.44;;;35.40;26.89
78149;BME280;67396;42.664;23.382;2023-07-20T09:01:18;94605.22;;;34.47;27.96
78149;BME280;67396;42.664;23.382;2023-07-20T09:03:45;94595.59;;;32.94;30.57
78149;BME280;67396;42.664;23.382;2023-07-20T09:06:11;94599.19;;;31.76;33.11
78149;BME280;67396;42.664;23.382;2023-07-20T09:08:40;94598.94;;;30.90;34.42
78149;BME280;67396;42.664;23.382;2023-07-20T09:11:06;94595.34;;;29.97;35.08
78149;BME280;67396;42.664;23.382;2023-07-20T09:13:32;94599.63;;;29.06;35.77
78149;BME280;67396;42.664;23.382;2023-07-20T09:15:58;94600.38;;;28.96;36.34
78149;BME280;67396;42.664;23.382;2023-07-20T09:18:25;94604.72;;;29.47;37.02
78149;BME280;67396;42.664;23.382;2023-07-20T09:20:51;94595.41;;;29.69;36.68
78149;BME280;67396;42.664;23.382;2023-07-20T09:23:16;94596.16;;;29.75;35.50
78149;BME280;67396;42.664;23.382;2023-07-20T09:25:42;94591.28;;;29.75;35.23
78149;BME280;67396;42.664;23.382;2023-07-20T09:28:07;94590.69;;;29.93;35.29
78149;BME280;67396;42.664;23.382;2023-07-20T09:30:34;94583.25;;;29.90;34.23
78149;BME280;67396;42.664;23.382;2023-07-20T09:32:59;94578.63;;;29.82;34.42
78149;BME280;67396;42.664;23.382;2023-07-20T09:35:25;94583.25;;;29.90;34.44
78149;BME280;67396;42.664;23.382;2023-07-20T09:37:54;94582.72;;;29.92;34.14
78149;BME280;67396;42.664;23.382;2023-07-20T09:40:20;94577.06;;;30.44;32.62
78149;BME280;67396;42.664;23.382;2023-07-20T09:42:46;94579.97;;;32.31;30.56
78149;BME280;67396;42.664;23.382;2023-07-20T09:45:11;94584.00;;;33.82;28.24
78149;BME280;67396;42.664;23.382;2023-07-20T09:47:38;94569.44;;;34.59;25.50
78149;BME280;67396;42.664;23.382;2023-07-20T09:50:04;94565.03;;;33.58;26.92
78149;BME280;67396;42.664;23.382;2023-07-20T09:52:30;94571.38;;;35.19;25.42
78149;BME280;67396;42.664;23.382;2023-07-20T09:54:56;94554.78;;;36.16;23.54
78149;BME280;67396;42.664;23.382;2023-07-20T09:57:23;94546.66;;;36.71;22.46
78149;BME280;67396;42.664;23.382;2023-07-20T09:59:48;94540.81;;;37.00;22.21
78149;BME280;67396;42.664;23.382;2023-07-20T10:02:20;94537.19;;;36.91;22.25
78149;BME280;67396;42.664;23.382;2023-07-20T10:04:52;94525.63;;;36.53;21.71
78149;BME280;67396;42.664;23.382;2023-07-20T10:07:19;94544.66;;;36.51;21.65
78149;BME280;67396;42.664;23.382;2023-07-20T10:09:48;94539.34;;;36.55;21.90
78149;BME280;67396;42.664;23.382;2023-07-20T10:12:15;94543.31;;;36.44;21.54
78149;BME280;67396;42.664;23.382;2023-07-20T10:14:52;94548.81;;;36.35;21.57
78149;BME280;67396;42.664;23.382;2023-07-20T10:17:20;94553.72;;;36.27;22.32
78149;BME280;67396;42.664;23.382;2023-07-20T10:19:49;94549.53;;;36.28;21.88
78149;BME280;67396;42.664;23.382;2023-07-20T10:22:26;94552.75;;;36.24;22.31
78149;BME280;67396;42.664;23.382;2023-07-20T10:24:54;94561.28;;;36.16;22.36
78149;BME280;67396;42.664;23.382;2023-07-20T10:27:23;94561.28;;;36.16;23.08
78149;BME280;67396;42.664;23.382;2023-07-20T10:29:48;94577.75;;;36.24;22.38
78149;BME280;67396;42.664;23.382;2023-07-20T10:32:16;94564.94;;;36.25;22.60
78149;BME280;67396;42.664;23.382;2023-07-20T10:34:42;94564.13;;;36.16;22.80
78149;BME280;67396;42.664;23.382;2023-07-20T10:37:07;94548.03;;;35.98;23.07
78149;BME280;67396;42.664;23.382;2023-07-20T10:39:33;94547.22;;;35.90;23.45
78149;BME280;67396;42.664;23.382;2023-07-20T10:42:09;94554.38;;;35.76;23.87
78149;BME280;67396;42.664;23.382;2023-07-20T10:44:39;94554.31;;;35.68;23.42
78149;BME280;67396;42.664;23.382;2023-07-20T10:47:12;94555.16;;;35.56;23.85
78149;BME280;67396;42.664;23.382;2023-07-20T10:49:58;94538.78;;;32.75;25.82
78149;BME280;67396;42.664;23.382;2023-07-20T10:52:24;94506.66;;;31.44;28.48
78149;BME280;67396;42.664;23.382;2023-07-20T10:54:49;94465.72;;;31.39;28.73
78149;BME280;67396;42.664;23.382;2023-07-20T10:57:27;94522.75;;;31.05;31.03
78149;BME280;67396;42.664;23.382;2023-07-20T11:00:07;94544.75;;;29.71;32.00
78149;BME280;67396;42.664;23.382;2023-07-20T11:02:44;94518.63;;;29.31;33.11
78149;BME280;67396;42.664;23.382;2023-07-20T11:05:41;94502.41;;;29.43;33.59
78149;BME280;67396;42.664;23.382;2023-07-20T11:08:12;94498.84;;;29.37;34.29
78149;BME280;67396;42.664;23.382;2023-07-20T11:10:37;94496.53;;;29.24;34.45
78149;BME280;67396;42.664;23.382;2023-07-20T11:13:22;94483.78;;;28.78;34.08
78149;BME280;67396;42.664;23.382;2023-07-20T11:16:02;94490.47;;;28.64;35.34
78149;BME280;67396;42.664;23.382;2023-07-20T11:18:28;94488.16;;;28.46;34.75
78149;BME280;67396;42.664;23.382;2023-07-20T11:20:54;94489.16;;;28.37;35.05
78149;BME280;67396;42.664;23.382;2023-07-20T11:23:20;94484.56;;;28.57;35.26
78149;BME280;67396;42.664;23.382;2023-07-20T11:25:46;94483.78;;;28.56;35.39
78149;BME280;67396;42.664;23.382;2023-07-20T11:28:12;94477.88;;;28.49;35.65
78149;BME280;67396;42.664;23.382;2023-07-20T11:30:38;94482.25;;;28.55;36.29
78149;BME280;67396;42.664;23.382;2023-07-20T11:33:08;94460.66;;;28.63;36.13
78149;BME280;67396;42.664;23.382;2023-07-20T11:35:44;94468.88;;;28.72;35.93
78149;BME280;67396;42.664;23.382;2023-07-20T11:38:12;94463.22;;;28.89;35.91
78149;BME280;67396;42.664;23.382;2023-07-20T11:40:42;94460.59;;;29.19;35.73
78149;BME280;67396;42.664;23.382;2023-07-20T11:43:08;94452.25;;;29.54;35.13
78149;BME280;67396;42.664;23.382;2023-07-20T11:45:35;94447.28;;;29.66;35.25
78149;BME280;67396;42.664;23.382;2023-07-20T11:48:00;94447.84;;;29.59;35.87
78149;BME280;67396;42.664;23.382;2023-07-20T11:50:26;94434.84;;;29.28;35.58
78149;BME280;67396;42.664;23.382;2023-07-20T11:52:51;94445.59;;;29.46;36.22
78149;BME280;67396;42.664;23.382;2023-07-20T11:55:17;94443.81;;;29.43;36.01
78149;BME280;67396;42.664;23.382;2023-07-20T11:58:02;94440.75;;;29.36;36.33
78149;BME280;67396;42.664;23.382;2023-07-20T12:00:27;94434.84;;;29.28;36.03
78149;BME280;67396;42.664;23.382;2023-07-20T12:02:53;94421.94;;;29.38;35.83
78149;BME280;67396;42.664;23.382;2023-07-20T12:05:19;94429.66;;;29.43;35.64
78149;BME280;67396;42.664;23.382;2023-07-20T12:07:47;94426.78;;;29.49;35.92
78149;BME280;67396;42.664;23.382;2023-07-20T12:10:13;94429.09;;;29.50;35.62
78149;BME280;67396;42.664;23.382;2023-07-20T12:12:42;94418.81;;;29.47;34.98
78149;BME280;67396;42.664;23.382;2023-07-20T12:15:26;94411.56;;;29.58;34.74
78149;BME280;67396;42.664;23.382;2023-07-20T12:17:56;94410.59;;;29.49;34.27
78149;BME280;67396;42.664;23.382;2023-07-20T12:20:30;94409.31;;;29.50;33.60
78149;BME280;67396;42.664;23.382;2023-07-20T12:23:01;94404.16;;;29.54;33.85
78149;BME280;67396;42.664;23.382;2023-07-20T12:25:44;94406.72;;;29.52;33.78
78149;BME280;67396;42.664;23.382;2023-07-20T12:28:14;94398.00;;;29.50;32.44
78149;BME280;67396;42.664;23.382;2023-07-20T12:30:41;94401.25;;;29.66;32.52
78149;BME280;67396;42.664;23.382;2023-07-20T12:33:07;94404.00;;;29.77;32.89
78149;BME280;67396;42.664;23.382;2023-07-20T12:35:32;94408.31;;;29.89;32.58
78149;BME280;67396;42.664;23.382;2023-07-20T12:37:58;94404.97;;;29.90;32.40
78149;BME280;67396;42.664;23.382;2023-07-20T12:40:24;94394.72;;;30.17;30.89
78149;BME280;67396;42.664;23.382;2023-07-20T12:42:50;94397.56;;;30.17;31.48
78149;BME280;67396;42.664;23.382;2023-07-20T12:45:15;94398.28;;;30.23;31.33
78149;BME280;67396;42.664;23.382;2023-07-20T12:47:41;94396.19;;;30.29;31.93
78149;BME280;67396;42.664;23.382;2023-07-20T12:50:08;94384.47;;;30.14;30.95
78149;BME280;67396;42.664;23.382;2023-07-20T12:52:38;94375.41;;;30.21;29.54
78149;BME280;67396;42.664;23.382;2023-07-20T12:55:04;94377.78;;;30.42;29.02